Time;durP1;ratioP1;P1;durP2;ratioP2;P2;SDS_P1;SDS_P2;PMS_P1;PMS_P2;Temp;Humidity;BMP_temperature;BMP_pressure;BME280_temperature;BME280_humidity;BME280_pressure;Samples;Min_cycle;Max_cycle;Signal;HPM_P1;HPM_P2
2022/02/09 00:04:04;;;;;;;5.55;2.10;;;6.70;66.80;;;;;;5026099;28;20036;-72
2022/02/09 00:09:02;;;;;;;3.80;1.80;;;6.60;66.80;;;;;;5021915;28;20098;-72
2022/02/09 00:11:33;;;;;;;4.60;2.00;;;6.50;67.10;;;;;;5020506;28;20033;-73
2022/02/09 00:14:07;;;;;;;6.13;2.88;;;6.50;68.00;;;;;;5013388;28;20436;-72
2022/02/09 00:19:29;;;;;;;8.10;2.45;;;6.40;68.10;;;;;;5014789;28;20037;-72
2022/02/09 00:22:14;;;;;;;11.77;4.90;;;6.20;68.30;;;;;;5009935;28;20321;-72
2022/02/09 00:33:10;;;;;;;4.32;1.73;;;5.80;69.30;;;;;;5026126;28;20486;-72
2022/02/09 01:51:12;;;;;;;4.40;1.83;;;5.60;72.20;;;;;;5031877;28;20064;-72
2022/02/09 01:56:24;;;;;;;16.95;7.70;;;5.20;73.30;;;;;;5031184;28;20095;-72
2022/02/09 01:58:50;;;;;;;5.13;1.92;;;5.10;73.60;;;;;;5031236;28;20053;-72
2022/02/09 02:01:16;;;;;;;4.40;1.60;;;5.00;74.00;;;;;;5035577;28;20124;-72
2022/02/09 02:03:45;;;;;;;8.60;5.32;;;5.20;73.50;;;;;;5033389;28;20083;-72
2022/02/09 02:06:14;;;;;;;2.55;1.38;;;5.30;73.50;;;;;;5035902;28;20033;-72
2022/02/09 02:08:43;;;;;;;8.23;2.92;;;5.20;73.60;;;;;;5034614;28;20041;-72
2022/02/09 02:18:49;;;;;;;2.97;1.20;;;5.60;72.50;;;;;;5032569;28;20140;-72
2022/02/09 02:24:13;;;;;;;2.97;1.30;;;5.30;73.40;;;;;;5027438;28;20084;-72
2022/02/09 02:37:39;;;;;;;4.30;2.17;;;4.60;75.10;;;;;;5034604;28;20056;-72
2022/02/09 02:40:20;;;;;;;11.35;4.97;;;4.50;75.50;;;;;;5028029;28;20379;-72
2022/02/09 03:07:59;;;;;;;4.72;2.20;;;4.00;77.10;;;;;;5015874;28;20061;-72
2022/02/09 03:11:02;;;;;;;7.63;4.10;;;3.80;78.10;;;;;;5032482;28;20511;-72
2022/02/09 03:13:33;;;;;;;5.47;2.35;;;3.80;78.50;;;;;;5032391;28;20797;-73
2022/02/09 03:16:04;;;;;;;4.40;1.20;;;3.60;78.50;;;;;;5028651;28;20030;-72
2022/02/09 03:21:20;;;;;;;2.95;1.10;;;4.10;77.90;;;;;;5033970;28;20045;-72
2022/02/09 03:55:40;;;;;;;4.25;1.55;;;4.40;77.50;;;;;;5032164;28;20068;-72
2022/02/09 03:58:06;;;;;;;6.60;2.88;;;4.00;78.50;;;;;;5033118;28;20076;-72
2022/02/09 04:00:36;;;;;;;5.88;1.52;;;3.90;78.90;;;;;;5031785;28;20041;-72
2022/02/09 04:03:04;;;;;;;2.83;1.20;;;3.60;79.80;;;;;;5023353;28;20617;-71
2022/02/09 04:05:30;;;;;;;3.53;1.38;;;3.50;79.70;;;;;;5022966;28;20120;-71
2022/02/09 04:07:56;;;;;;;4.07;1.10;;;3.90;79.40;;;;;;5024152;28;20041;-72
2022/02/09 04:10:29;;;;;;;6.35;0.95;;;4.20;78.30;;;;;;5021967;28;20041;-72
2022/02/09 04:37:13;;;;;;;2.27;1.00;;;3.80;79.60;;;;;;5024897;28;20056;-71
2022/02/09 04:40:25;;;;;;;3.22;0.98;;;3.90;79.40;;;;;;5027023;28;20059;-71
2022/02/09 04:48:32;;;;;;;3.17;1.73;;;4.10;78.80;;;;;;5003447;28;20103;-71
2022/02/09 04:51:17;;;;;;;1.92;0.88;;;4.10;79.20;;;;;;5027594;28;20052;-71
2022/02/09 04:56:41;;;;;;;1.90;0.65;;;4.00;79.30;;;;;;5027257;28;20029;-71
2022/02/09 05:23:10;;;;;;;2.65;1.30;;;4.30;79.30;;;;;;5024290;28;20087;-71
2022/02/09 05:26:05;;;;;;;3.55;1.35;;;4.20;79.70;;;;;;5023825;28;20033;-71
2022/02/09 05:28:24;;;;;;;2.33;0.80;;;4.10;80.10;;;;;;5020351;28;20038;-72
2022/02/09 05:30:53;;;;;;;2.25;0.73;;;4.10;80.40;;;;;;5022190;28;20027;-72
2022/02/09 05:33:19;;;;;;;7.82;4.30;;;4.30;79.60;;;;;;5023877;28;20111;-71
2022/02/09 05:35:46;;;;;;;8.75;5.13;;;4.30;80.00;;;;;;5023227;28;20133;-72
2022/02/09 05:38:13;;;;;;;5.97;2.90;;;4.10;80.30;;;;;;5022669;28;20175;-72
2022/02/09 05:40:39;;;;;;;4.65;2.70;;;3.80;81.30;;;;;;5023734;28;20064;-71
2022/02/09 05:43:05;;;;;;;4.20;1.48;;;3.70;81.90;;;;;;5024095;28;20040;-71
2022/02/09 05:45:48;;;;;;;4.40;1.25;;;3.70;82.00;;;;;;5023125;28;20026;-71
2022/02/09 05:53:13;;;;;;;1.80;0.70;;;4.80;79.30;;;;;;5023862;28;20044;-72
2022/02/09 05:58:20;;;;;;;1.83;0.85;;;4.60;79.60;;;;;;5022717;28;20061;-72
2022/02/09 06:00:47;;;;;;;3.05;1.05;;;4.60;79.40;;;;;;5024570;28;20554;-71
2022/02/09 06:03:16;;;;;;;2.30;1.02;;;4.20;80.30;;;;;;5022427;28;20041;-71
2022/02/09 06:05:42;;;;;;;2.55;1.20;;;4.00;80.90;;;;;;5022903;28;20035;-72
2022/02/09 06:08:08;;;;;;;2.80;1.20;;;3.80;81.70;;;;;;5021374;28;20563;-71
2022/02/09 06:10:35;;;;;;;1.50;0.90;;;3.70;81.80;;;;;;5022294;28;20033;-71
2022/02/09 06:20:59;;;;;;;3.72;1.15;;;4.20;80.80;;;;;;5022926;28;20111;-68
2022/02/09 06:23:25;;;;;;;2.55;1.23;;;4.30;80.80;;;;;;5021319;28;20091;-72
2022/02/09 06:25:51;;;;;;;2.40;0.82;;;4.00;81.10;;;;;;5021975;28;20595;-72
2022/02/09 06:28:17;;;;;;;2.55;1.05;;;3.90;81.60;;;;;;5021736;28;20040;-72
2022/02/09 06:30:42;;;;;;;2.42;0.80;;;3.90;81.50;;;;;;5013827;28;20071;-72
2022/02/09 06:33:08;;;;;;;2.53;1.00;;;4.10;80.90;;;;;;5022486;28;20081;-72
2022/02/09 06:35:34;;;;;;;1.90;0.75;;;3.90;81.20;;;;;;5023559;28;20037;-72
2022/02/09 06:38:01;;;;;;;2.47;1.63;;;3.90;81.40;;;;;;5023325;28;20126;-72
2022/02/09 06:40:27;;;;;;;2.80;1.08;;;3.90;81.40;;;;;;5022728;28;20030;-71
2022/02/09 06:42:53;;;;;;;2.08;1.15;;;3.80;81.50;;;;;;5025522;28;20040;-72
2022/02/09 06:45:22;;;;;;;2.65;1.02;;;3.90;81.50;;;;;;5027035;28;20041;-72
2022/02/09 06:47:48;;;;;;;2.80;0.95;;;3.80;81.50;;;;;;5026629;28;20068;-71
2022/02/09 06:50:24;;;;;;;3.97;1.33;;;3.90;81.50;;;;;;5026897;28;20109;-72
2022/02/09 06:53:02;;;;;;;2.10;0.95;;;3.80;81.70;;;;;;5027364;28;20067;-72
2022/02/09 06:55:28;;;;;;;2.15;1.08;;;3.90;82.00;;;;;;5027116;28;20033;-71
2022/02/09 07:00:21;;;;;;;4.93;1.55;;;3.80;81.80;;;;;;5027161;28;20037;-72
2022/02/09 07:02:48;;;;;;;3.72;1.27;;;3.80;82.00;;;;;;5027035;28;20040;-71
2022/02/09 07:05:14;;;;;;;4.60;1.48;;;4.10;81.00;;;;;;5027599;28;20045;-72
2022/02/09 07:07:41;;;;;;;3.00;1.13;;;4.50;80.30;;;;;;5027311;28;20109;-71
2022/02/09 07:10:09;;;;;;;2.85;1.40;;;4.40;80.40;;;;;;5027475;28;20098;-72
2022/02/09 07:12:35;;;;;;;3.30;1.58;;;4.20;81.10;;;;;;5027225;28;20033;-72
2022/02/09 07:15:02;;;;;;;4.45;2.55;;;4.10;81.80;;;;;;5027895;28;20167;-72
2022/02/09 07:17:28;;;;;;;5.88;2.15;;;3.90;82.30;;;;;;5027029;28;20025;-71
2022/02/09 07:20:04;;;;;;;4.43;1.65;;;3.70;82.60;;;;;;5030272;28;20042;-72
2022/02/09 07:22:31;;;;;;;3.30;1.05;;;3.70;82.80;;;;;;5026412;28;20029;-73
2022/02/09 07:25:08;;;;;;;3.45;1.00;;;3.70;82.70;;;;;;5027024;28;20032;-72
2022/02/09 07:27:49;;;;;;;1.95;0.70;;;3.60;82.50;;;;;;5027083;28;20577;-72
2022/02/09 07:30:26;;;;;;;2.15;0.75;;;3.60;82.50;;;;;;5026527;28;20087;-73
2022/02/09 07:32:53;;;;;;;4.93;1.10;;;3.60;82.60;;;;;;5026164;28;20059;-73
2022/02/09 07:35:19;;;;;;;1.90;0.70;;;3.70;82.60;;;;;;5025714;28;20095;-73
2022/02/09 07:37:45;;;;;;;2.33;0.95;;;3.70;82.60;;;;;;5026910;28;20104;-73
2022/02/09 07:40:12;;;;;;;2.67;0.82;;;3.70;82.60;;;;;;5026180;28;20029;-73
2022/02/09 07:42:47;;;;;;;2.88;1.27;;;3.80;82.50;;;;;;5025940;28;20025;-73
2022/02/09 07:50:44;;;;;;;2.53;0.80;;;4.20;81.40;;;;;;5025155;28;20160;-72
2022/02/09 07:55:37;;;;;;;2.65;0.82;;;4.30;81.20;;;;;;5025217;28;20091;-73
2022/02/09 07:58:03;;;;;;;1.38;0.70;;;4.30;81.10;;;;;;5025059;28;20408;-72
2022/02/09 08:00:30;;;;;;;3.25;1.20;;;4.20;81.60;;;;;;5025261;28;20053;-73
2022/02/09 08:02:57;;;;;;;2.92;1.30;;;3.90;82.90;;;;;;5026675;28;20048;-73
2022/02/09 08:05:23;;;;;;;3.60;1.60;;;4.00;82.60;;;;;;5025754;28;20037;-73
2022/02/09 08:07:49;;;;;;;2.08;1.13;;;4.00;82.40;;;;;;5026151;28;20025;-73
2022/02/09 08:10:29;;;;;;;2.45;1.10;;;4.00;82.60;;;;;;5025627;28;20032;-73
2022/02/09 08:24:02;;;;;;;2.40;1.10;;;3.90;83.30;;;;;;5025603;28;20048;-73
2022/02/09 08:34:19;;;;;;;11.20;5.15;;;4.00;82.50;;;;;;5025465;28;20119;-72
2022/02/09 08:36:45;;;;;;;5.95;1.65;;;4.10;82.80;;;;;;5025233;28;20064;-73
2022/02/09 08:39:11;;;;;;;2.70;1.38;;;4.20;81.80;;;;;;5025391;28;20134;-72
2022/02/09 08:41:37;;;;;;;3.92;0.90;;;4.40;81.40;;;;;;5025482;28;20033;-72
2022/02/09 08:44:03;;;;;;;2.15;0.88;;;4.50;81.60;;;;;;5024781;28;20056;-72
2022/02/09 08:46:28;;;;;;;6.38;2.78;;;4.30;81.80;;;;;;5025355;28;20487;-72
2022/02/09 08:48:54;;;;;;;6.50;2.72;;;4.40;82.10;;;;;;5024974;28;20049;-72
2022/02/09 08:51:22;;;;;;;61.83;26.33;;;4.40;82.00;;;;;;5006350;28;20040;-72
2022/02/09 08:53:48;;;;;;;14.10;4.82;;;4.40;81.80;;;;;;5014300;28;20021;-72
2022/02/09 08:56:14;;;;;;;4.03;2.03;;;4.60;81.20;;;;;;5022437;28;20491;-72
2022/02/09 08:58:41;;;;;;;2.72;1.30;;;4.50;81.90;;;;;;5024328;28;20049;-73
2022/02/09 09:01:12;;;;;;;3.17;1.13;;;4.40;82.00;;;;;;5024395;28;20071;-72
2022/02/09 09:03:54;;;;;;;14.40;6.60;;;4.40;82.20;;;;;;5024954;28;20022;-72
2022/02/09 09:06:24;;;;;;;10.70;4.28;;;4.40;81.90;;;;;;5023795;28;20057;-72
2022/02/09 09:25:08;;;;;;;;;;;4.60;81.70;;;;;;5024885;28;20095;-73
2022/02/09 10:34:27;;;;;;;3.13;1.58;;;6.80;78.10;;;;;;5026143;28;20044;-74
2022/02/09 10:37:02;;;;;;;14.75;7.47;;;6.80;77.00;;;;;;5027358;28;20033;-74
2022/02/09 10:39:53;;;;;;;4.60;2.00;;;6.80;78.20;;;;;;5027103;28;20029;-74
2022/02/09 10:42:31;;;;;;;5.05;1.95;;;6.80;78.30;;;;;;5025877;28;20037;-74
2022/02/09 10:45:06;;;;;;;4.28;1.60;;;6.90;78.40;;;;;;5026779;28;20184;-74
2022/02/09 10:47:36;;;;;;;2.75;1.20;;;7.00;77.30;;;;;;5027489;28;20387;-74
2022/02/09 10:50:31;;;;;;;5.53;1.30;;;7.10;77.00;;;;;;5027721;28;20035;-74
2022/02/09 10:53:01;;;;;;;5.68;1.92;;;7.20;77.20;;;;;;5027585;28;20021;-74
2022/02/09 10:55:39;;;;;;;3.75;1.90;;;7.20;78.70;;;;;;5026513;28;20029;-74
2022/02/09 10:58:10;;;;;;;6.28;3.53;;;7.20;78.40;;;;;;5027106;28;20073;-74
2022/02/09 11:00:37;;;;;;;4.97;2.42;;;7.40;78.30;;;;;;5026568;28;20116;-74
2022/02/09 11:03:03;;;;;;;5.00;2.15;;;7.60;77.80;;;;;;5027130;28;20032;-73
2022/02/09 11:05:29;;;;;;;6.20;1.90;;;7.70;77.50;;;;;;5026814;28;20124;-74
2022/02/09 11:07:55;;;;;;;9.43;2.47;;;7.80;76.80;;;;;;5027051;28;20029;-74
2022/02/09 11:10:22;;;;;;;4.88;2.10;;;7.80;76.20;;;;;;5026974;28;20482;-74
2022/02/09 11:12:50;;;;;;;3.08;1.65;;;7.80;76.20;;;;;;5027035;28;20052;-75
2022/02/09 11:15:18;;;;;;;3.53;1.58;;;7.90;75.80;;;;;;5025581;28;20064;-74
2022/02/09 11:17:47;;;;;;;4.25;1.67;;;7.90;76.10;;;;;;5026664;28;20407;-74
2022/02/09 11:20:30;;;;;;;6.78;2.60;;;7.90;75.30;;;;;;5026606;28;20038;-74
2022/02/09 11:22:56;;;;;;;5.25;2.72;;;7.90;76.50;;;;;;5026555;28;20067;-74
2022/02/09 11:25:53;;;;;;;4.93;1.75;;;8.10;76.70;;;;;;5026741;28;20029;-74
2022/02/09 11:28:31;;;;;;;4.38;1.77;;;8.10;75.50;;;;;;5021153;28;20045;-74
2022/02/09 11:31:06;;;;;;;4.80;2.00;;;8.20;75.70;;;;;;5026536;28;20053;-74
2022/02/09 11:33:54;;;;;;;5.93;2.10;;;8.30;74.80;;;;;;5025743;28;20026;-74
2022/02/09 11:36:31;;;;;;;2.33;1.23;;;8.30;74.50;;;;;;5026461;28;20025;-74
2022/02/09 11:39:19;;;;;;;3.30;1.67;;;8.50;75.60;;;;;;5025955;28;20049;-74
2022/02/09 11:41:59;;;;;;;4.50;1.83;;;8.60;75.10;;;;;;5026160;28;20071;-74
2022/02/09 11:44:53;;;;;;;6.72;1.90;;;8.60;74.50;;;;;;5024775;28;20114;-74
2022/02/09 12:09:41;;;;;;;5.25;2.10;;;9.40;73.80;;;;;;5018076;28;20044;-73
2022/02/09 12:12:13;;;;;;;5.28;1.95;;;9.80;74.00;;;;;;5025346;28;20071;-73
2022/02/09 12:20:22;;;;;;;6.13;1.95;;;10.50;72.20;;;;;;5025619;28;20436;-72
2022/02/09 12:23:06;;;;;;;8.48;4.53;;;10.30;72.30;;;;;;5025418;28;20166;-72
2022/02/09 12:25:40;;;;;;;6.20;2.65;;;10.40;72.20;;;;;;5024491;28;20033;-72
2022/02/09 12:28:06;;;;;;;5.18;2.88;;;10.50;72.60;;;;;;5025976;28;20139;-72
2022/02/09 12:30:33;;;;;;;4.55;2.10;;;10.50;71.90;;;;;;5025206;28;20079;-72
2022/02/09 12:32:59;;;;;;;7.85;3.15;;;10.50;72.10;;;;;;5025566;28;20132;-72
2022/02/09 12:35:25;;;;;;;4.90;2.20;;;10.40;72.50;;;;;;5025177;28;20029;-72
2022/02/09 12:37:53;;;;;;;4.40;2.00;;;10.40;72.20;;;;;;5025330;28;20474;-71
2022/02/09 12:40:23;;;;;;;6.85;4.07;;;10.40;72.00;;;;;;5024317;28;20041;-71
2022/02/09 12:42:51;;;;;;;8.27;3.17;;;10.50;72.00;;;;;;5024183;28;20041;-71
2022/02/09 12:45:18;;;;;;;7.20;2.08;;;10.70;71.50;;;;;;5024370;28;20056;-71
2022/02/09 12:47:48;;;;;;;3.80;1.50;;;10.90;71.00;;;;;;5025496;28;20100;-71
2022/02/09 12:50:15;;;;;;;3.83;1.60;;;10.90;70.70;;;;;;5025051;28;20070;-71
2022/02/09 12:52:43;;;;;;;3.45;1.40;;;10.70;70.00;;;;;;5024762;28;20040;-73
2022/02/09 12:55:14;;;;;;;5.30;1.65;;;10.80;71.00;;;;;;5024721;28;20022;-71
2022/02/09 12:57:44;;;;;;;5.88;2.00;;;11.10;70.10;;;;;;5023299;28;20053;-71
2022/02/09 13:00:40;;;;;;;2.70;1.23;;;11.00;69.10;;;;;;5024219;28;20033;-71
2022/02/09 13:03:18;;;;;;;6.85;2.10;;;11.10;69.10;;;;;;5024578;28;20041;-72
2022/02/09 13:05:53;;;;;;;3.78;1.45;;;11.10;68.30;;;;;;5024694;28;20140;-72
2022/02/09 13:08:30;;;;;;;3.92;1.33;;;11.10;68.90;;;;;;5025132;28;20124;-72
2022/02/09 13:11:15;;;;;;;3.40;1.40;;;11.10;68.30;;;;;;5024417;28;20733;-72
2022/02/09 13:13:44;;;;;;;3.28;1.00;;;11.00;67.90;;;;;;5024067;28;20025;-72
2022/02/09 13:16:24;;;;;;;8.85;1.75;;;10.90;68.70;;;;;;5024413;28;20037;-72
2022/02/09 13:19:20;;;;;;;3.55;1.60;;;11.00;69.60;;;;;;5024120;28;20069;-72
2022/02/09 13:55:09;;;;;;;5.47;2.30;;;11.50;69.80;;;;;;5031170;28;20090;-72
2022/02/09 14:52:53;;;;;;;3.67;1.30;;;12.00;67.40;;;;;;5030758;28;20096;-72
2022/02/09 14:58:04;;;;;;;;;;;12.20;67.30;;;;;;5030975;28;20049;-72
2022/02/09 15:00:32;;;;;;;5.43;2.13;;;12.30;67.40;;;;;;5029792;28;19909;-73
2022/02/09 15:03:05;;;;;;;5.28;2.10;;;12.30;67.10;;;;;;5026820;28;20033;-72
2022/02/09 15:21:16;;;;;;;4.63;1.30;;;11.90;67.90;;;;;;5029573;28;20049;-72
2022/02/09 15:23:42;;;;;;;3.08;1.50;;;11.90;68.20;;;;;;5029540;28;20029;-72
2022/02/09 15:26:07;;;;;;;4.95;1.67;;;12.00;68.00;;;;;;5029605;28;20030;-73
2022/02/09 15:28:35;;;;;;;6.85;1.75;;;11.90;68.60;;;;;;5028975;28;20071;-72
2022/02/09 15:31:16;;;;;;;3.13;1.60;;;11.80;67.80;;;;;;5028388;28;20025;-72
2022/02/09 15:33:46;;;;;;;3.60;1.70;;;11.70;68.20;;;;;;5031535;28;20129;-72
2022/02/09 15:36:15;;;;;;;6.22;1.60;;;11.50;68.40;;;;;;5029149;28;20033;-72
2022/02/09 15:38:47;;;;;;;6.97;2.83;;;11.40;68.60;;;;;;5027355;28;20037;-72
2022/02/09 15:41:31;;;;;;;4.75;2.15;;;11.40;69.00;;;;;;5029226;28;20037;-72
2022/02/09 15:56:15;;;;;;;5.05;3.17;;;11.30;69.50;;;;;;5028791;28;20052;-72
2022/02/09 15:58:21;;;;;;;3.75;1.63;;;10.90;70.50;;;;;;5029395;28;20183;-72
2022/02/09 16:21:59;;;;;;;8.95;2.72;;;10.30;69.90;;;;;;5026654;28;20049;-72
2022/02/09 16:33:17;;;;;;;4.83;2.53;;;9.80;71.60;;;;;;5005371;28;20040;-70
2022/02/09 16:38:31;;;;;;;8.70;2.95;;;9.70;70.60;;;;;;5028361;28;20029;-70
2022/02/09 16:46:24;;;;;;;3.80;1.83;;;9.40;70.20;;;;;;5028325;28;20306;-70
2022/02/09 16:51:28;;;;;;;3.90;2.10;;;9.10;70.40;;;;;;5027933;28;20037;-70
2022/02/09 16:54:04;;;;;;;4.00;1.55;;;9.00;71.20;;;;;;5027601;28;20025;-70
2022/02/09 17:20:40;;;;;;;5.25;2.75;;;8.10;72.80;;;;;;5026996;28;20451;-72
2022/02/09 17:23:06;;;;;;;5.78;2.40;;;8.10;73.60;;;;;;5026586;28;20227;-72
2022/02/09 17:25:32;;;;;;;5.57;2.42;;;8.00;73.90;;;;;;5026919;28;20065;-72
2022/02/09 17:27:58;;;;;;;4.90;2.35;;;8.00;74.00;;;;;;5026007;28;20411;-73
2022/02/09 17:33:45;;;;;;;5.72;2.92;;;8.00;74.10;;;;;;4994175;28;20041;-72
2022/02/09 17:36:22;;;;;;;6.63;2.25;;;8.30;73.60;;;;;;5027666;28;20407;-72
2022/02/09 17:57:44;;;;;;;5.82;3.20;;;8.10;74.20;;;;;;5026292;28;20045;-74
2022/02/09 18:02:38;;;;;;;7.80;3.35;;;8.40;72.80;;;;;;5009639;28;20499;-72
2022/02/09 18:05:09;;;;;;;7.47;3.95;;;8.40;72.60;;;;;;5026901;28;20033;-73
2022/02/09 18:07:37;;;;;;;7.85;4.20;;;8.30;72.90;;;;;;5026859;28;20512;-73
2022/02/09 18:10:17;;;;;;;10.55;4.65;;;8.40;73.10;;;;;;5027023;28;20061;-72
2022/02/09 18:13:12;;;;;;;7.95;4.07;;;8.20;73.20;;;;;;5025966;28;20142;-73
2022/02/09 18:45:11;;;;;;;10.68;4.20;;;7.90;75.90;;;;;;5027630;28;20090;-71
2022/02/09 18:47:58;;;;;;;8.65;5.05;;;7.70;76.30;;;;;;5027586;28;20026;-71
2022/02/09 19:01:36;;;;;;;11.27;5.43;;;7.60;77.90;;;;;;5029955;28;20056;-72
2022/02/09 19:04:41;;;;;;;9.82;5.18;;;7.40;78.90;;;;;;5023102;28;20048;-72
2022/02/09 19:18:11;;;;;;;7.97;4.30;;;6.90;79.00;;;;;;5009172;28;20468;-73
2022/02/09 19:31:28;;;;;;;10.07;5.07;;;7.00;78.80;;;;;;5022003;28;20725;-72
2022/02/09 19:47:07;;;;;;;11.20;4.00;;;6.80;80.60;;;;;;5024646;28;20037;-73
2022/02/09 19:57:10;;;;;;;10.57;4.63;;;6.60;81.00;;;;;;5024722;28;20049;-73
2022/02/09 19:59:38;;;;;;;8.60;5.15;;;6.70;80.90;;;;;;5024040;28;20032;-73
2022/02/09 20:02:07;;;;;;;8.32;4.32;;;6.70;80.80;;;;;;5019009;28;20093;-72
2022/02/09 20:04:32;;;;;;;10.27;5.10;;;6.80;80.90;;;;;;5023992;28;20371;-72
2022/02/09 20:06:58;;;;;;;12.40;6.03;;;6.70;81.70;;;;;;5024581;28;20038;-73
2022/02/09 20:09:27;;;;;;;14.10;6.22;;;6.70;83.80;;;;;;5023861;28;20044;-72
2022/02/09 20:11:53;;;;;;;9.07;5.20;;;6.70;82.60;;;;;;5022696;28;20393;-73
2022/02/09 20:14:19;;;;;;;9.95;5.20;;;6.80;82.20;;;;;;5022066;28;20313;-73
2022/02/09 20:16:45;;;;;;;12.10;5.22;;;6.80;81.90;;;;;;5023899;28;20030;-72
2022/02/09 20:19:12;;;;;;;12.05;5.85;;;6.70;82.40;;;;;;5023199;28;20076;-73
2022/02/09 20:21:38;;;;;;;10.63;5.18;;;6.80;82.90;;;;;;5014566;28;20045;-73
2022/02/09 20:24:05;;;;;;;13.32;5.32;;;6.80;82.80;;;;;;5023362;28;20141;-72
2022/02/09 20:26:31;;;;;;;12.45;5.63;;;6.90;83.10;;;;;;5019679;28;20174;-73
2022/02/09 20:31:31;;;;;;;9.73;5.18;;;6.90;82.80;;;;;;5025461;28;20045;-73
2022/02/09 20:34:03;;;;;;;20.38;7.47;;;6.60;83.00;;;;;;5023263;28;20038;-73
2022/02/09 20:36:31;;;;;;;10.02;5.55;;;6.70;82.90;;;;;;5016214;28;20112;-73
2022/02/09 20:38:59;;;;;;;10.20;5.78;;;6.60;83.50;;;;;;5023911;28;20360;-73
2022/02/09 20:41:25;;;;;;;14.50;6.22;;;6.70;83.30;;;;;;5024871;28;20037;-73
2022/02/09 20:44:05;;;;;;;17.30;6.72;;;6.60;83.90;;;;;;5021676;28;20498;-73
2022/02/09 20:46:33;;;;;;;13.05;6.40;;;6.80;83.40;;;;;;5024765;28;20507;-73
2022/02/09 20:49:00;;;;;;;13.80;6.20;;;6.80;83.70;;;;;;5022586;28;20041;-73
2022/02/09 20:51:25;;;;;;;9.70;5.13;;;6.80;83.60;;;;;;5017761;28;20040;-73
2022/02/09 20:53:52;;;;;;;13.40;5.95;;;6.70;83.20;;;;;;5018994;28;20041;-73
2022/02/09 20:56:18;;;;;;;12.95;5.82;;;6.70;82.80;;;;;;5024472;28;20168;-72
2022/02/09 20:58:45;;;;;;;11.25;6.28;;;6.60;82.60;;;;;;5018319;28;20053;-73
2022/02/09 21:01:16;;;;;;;14.40;6.78;;;6.70;83.10;;;;;;5017110;28;20029;-72
2022/02/09 21:03:50;;;;;;;14.38;6.60;;;6.40;84.60;;;;;;5024397;28;20518;-73
2022/02/09 21:06:32;;;;;;;12.35;6.97;;;6.30;85.80;;;;;;5023872;28;20091;-72
2022/02/09 21:14:42;;;;;;;12.82;6.80;;;6.60;87.50;;;;;;5004325;28;20034;-73
2022/02/09 21:20:33;;;;;;;19.00;7.38;;;6.30;86.80;;;;;;5021808;28;20534;-72
2022/02/09 22:28:18;;;;;;;13.20;7.03;;;5.80;90.50;;;;;;5023676;28;20086;-73
2022/02/09 22:47:40;;;;;;;13.38;7.05;;;5.60;90.90;;;;;;5024226;28;20044;-72
2022/02/09 22:50:14;;;;;;;13.98;7.88;;;5.40;91.40;;;;;;5025506;28;20049;-73
2022/02/09 22:55:15;;;;;;;17.50;9.00;;;5.70;91.10;;;;;;5027409;28;20034;-73
2022/02/09 22:57:44;;;;;;;13.02;7.47;;;5.70;91.20;;;;;;5024791;28;20161;-73
2022/02/09 23:00:34;;;;;;;13.55;7.43;;;5.80;91.20;;;;;;5026914;28;20052;-73
2022/02/09 23:03:00;;;;;;;15.52;8.23;;;5.60;91.30;;;;;;5025740;28;20037;-73
2022/02/09 23:05:51;;;;;;;21.23;9.10;;;5.50;91.60;;;;;;5026349;28;20041;-73
2022/02/09 23:09:11;;;;;;;14.70;8.48;;;5.70;91.50;;;;;;5025869;28;20028;-73
2022/02/09 23:11:19;;;;;;;12.23;7.82;;;5.50;91.60;;;;;;5021568;28;20538;-72
2022/02/09 23:16:51;;;;;;;15.35;8.77;;;5.50;91.80;;;;;;5026421;28;20045;-73
2022/02/09 23:22:53;;;;;;;21.35;9.00;;;5.40;91.60;;;;;;4963874;28;20464;-73
